sensor_id;sensor_type;location;lat;lon;timestamp;P1;durP1;ratioP1;P2;durP2;ratioP2
74753;SDS011;63271;53.340;-6.260;2023-11-18T07:01:56;4.53;;;0.95;;
74753;SDS011;63271;53.340;-6.260;2023-11-18T07:04:21;3.97;;;0.95;;
74753;SDS011;63271;53.340;-6.260;2023-11-18T07:06:50;3.40;;;0.90;;
74753;SDS011;63271;53.340;-6.260;2023-11-18T07:09:15;2.60;;;1.00;;
74753;SDS011;63271;53.340;-6.260;2023-11-18T07:11:49;3.10;;;0.82;;
74753;SDS011;63271;53.340;-6.260;2023-11-18T07:14:16;3.63;;;0.90;;
74753;SDS011;63271;53.340;-6.260;2023-11-18T07:16:44;5.50;;;1.10;;
74753;SDS011;63271;53.340;-6.260;2023-11-18T07:19:12;5.85;;;1.20;;
74753;SDS011;63271;53.340;-6.260;2023-11-18T07:21:48;4.85;;;0.95;;
74753;SDS011;63271;53.340;-6.260;2023-11-18T07:24:14;7.72;;;1.45;;
74753;SDS011;63271;53.340;-6.260;2023-11-18T07:26:40;5.70;;;1.23;;
74753;SDS011;63271;53.340;-6.260;2023-11-18T07:29:09;6.20;;;1.48;;
74753;SDS011;63271;53.340;-6.260;2023-11-18T07:31:39;5.55;;;1.17;;
74753;SDS011;63271;53.340;-6.260;2023-11-18T07:34:10;6.60;;;1.70;;
74753;SDS011;63271;53.340;-6.260;2023-11-18T07:36:38;9.80;;;1.35;;
74753;SDS011;63271;53.340;-6.260;2023-11-18T07:39:11;9.13;;;1.65;;
74753;SDS011;63271;53.340;-6.260;2023-11-18T07:41:41;6.25;;;1.33;;
74753;SDS011;63271;53.340;-6.260;2023-11-18T07:44:09;6.82;;;1.45;;
74753;SDS011;63271;53.340;-6.260;2023-11-18T07:46:40;6.30;;;1.77;;
74753;SDS011;63271;53.340;-6.260;2023-11-18T07:49:13;6.18;;;1.83;;
74753;SDS011;63271;53.340;-6.260;2023-11-18T07:51:41;4.97;;;1.50;;
74753;SDS011;63271;53.340;-6.260;2023-11-18T07:54:09;9.27;;;1.60;;
74753;SDS011;63271;53.340;-6.260;2023-11-18T07:56:39;5.18;;;1.10;;
74753;SDS011;63271;53.340;-6.260;2023-11-18T07:59:10;4.95;;;1.13;;
74753;SDS011;63271;53.340;-6.260;2023-11-18T08:01:43;8.25;;;1.90;;
74753;SDS011;63271;53.340;-6.260;2023-11-18T08:04:14;9.27;;;1.70;;
74753;SDS011;63271;53.340;-6.260;2023-11-18T08:06:48;8.90;;;1.60;;
74753;SDS011;63271;53.340;-6.260;2023-11-18T08:09:14;12.73;;;1.73;;
74753;SDS011;63271;53.340;-6.260;2023-11-18T08:11:44;6.75;;;1.73;;
74753;SDS011;63271;53.340;-6.260;2023-11-18T08:14:12;7.75;;;1.50;;
74753;SDS011;63271;53.340;-6.260;2023-11-18T08:16:38;6.40;;;1.63;;
74753;SDS011;63271;53.340;-6.260;2023-11-18T08:19:03;10.27;;;1.92;;
74753;SDS011;63271;53.340;-6.260;2023-11-18T08:21:33;8.93;;;1.70;;
74753;SDS011;63271;53.340;-6.260;2023-11-18T08:24:05;7.65;;;1.65;;
74753;SDS011;63271;53.340;-6.260;2023-11-18T08:26:34;9.68;;;1.63;;
74753;SDS011;63271;53.340;-6.260;2023-11-18T08:29:04;6.88;;;1.65;;
74753;SDS011;63271;53.340;-6.260;2023-11-18T08:31:34;8.43;;;2.03;;
74753;SDS011;63271;53.340;-6.260;2023-11-18T08:34:01;9.93;;;1.85;;
74753;SDS011;63271;53.340;-6.260;2023-11-18T08:36:32;10.50;;;2.00;;
74753;SDS011;63271;53.340;-6.260;2023-11-18T08:39:01;7.03;;;1.60;;
74753;SDS011;63271;53.340;-6.260;2023-11-18T08:41:35;8.15;;;1.98;;
74753;SDS011;63271;53.340;-6.260;2023-11-18T08:44:03;9.85;;;2.28;;
74753;SDS011;63271;53.340;-6.260;2023-11-18T08:46:31;11.38;;;1.63;;
74753;SDS011;63271;53.340;-6.260;2023-11-18T08:48:57;8.05;;;1.75;;
74753;SDS011;63271;53.340;-6.260;2023-11-18T08:51:24;8.57;;;1.90;;
74753;SDS011;63271;53.340;-6.260;2023-11-18T08:53:56;6.15;;;2.05;;
74753;SDS011;63271;53.340;-6.260;2023-11-18T08:56:25;9.15;;;2.28;;
74753;SDS011;63271;53.340;-6.260;2023-11-18T08:58:59;9.77;;;2.22;;
74753;SDS011;63271;53.340;-6.260;2023-11-18T09:01:26;8.43;;;1.85;;
74753;SDS011;63271;53.340;-6.260;2023-11-18T09:03:55;9.70;;;2.28;;
74753;SDS011;63271;53.340;-6.260;2023-11-18T09:06:26;9.68;;;2.10;;
74753;SDS011;63271;53.340;-6.260;2023-11-18T09:08:53;9.73;;;1.73;;
74753;SDS011;63271;53.340;-6.260;2023-11-18T09:11:25;7.60;;;1.80;;
74753;SDS011;63271;53.340;-6.260;2023-11-18T09:14:00;11.57;;;2.63;;
74753;SDS011;63271;53.340;-6.260;2023-11-18T09:16:32;12.48;;;2.05;;
74753;SDS011;63271;53.340;-6.260;2023-11-18T09:19:04;9.63;;;1.83;;
74753;SDS011;63271;53.340;-6.260;2023-11-18T09:21:33;12.30;;;2.08;;
74753;SDS011;63271;53.340;-6.260;2023-11-18T09:24:01;9.95;;;2.00;;
74753;SDS011;63271;53.340;-6.260;2023-11-18T09:26:35;8.32;;;2.20;;
74753;SDS011;63271;53.340;-6.260;2023-11-18T09:29:00;12.52;;;2.13;;
74753;SDS011;63271;53.340;-6.260;2023-11-18T09:31:28;12.35;;;2.33;;
74753;SDS011;63271;53.340;-6.260;2023-11-18T09:33:54;14.02;;;3.58;;
74753;SDS011;63271;53.340;-6.260;2023-11-18T09:36:22;9.88;;;2.10;;
74753;SDS011;63271;53.340;-6.260;2023-11-18T09:38:48;6.07;;;2.08;;
74753;SDS011;63271;53.340;-6.260;2023-11-18T09:41:14;9.13;;;1.83;;
74753;SDS011;63271;53.340;-6.260;2023-11-18T09:43:46;10.90;;;2.65;;
74753;SDS011;63271;53.340;-6.260;2023-11-18T09:46:13;8.82;;;1.92;;
74753;SDS011;63271;53.340;-6.260;2023-11-18T09:51:24;13.85;;;2.45;;
74753;SDS011;63271;53.340;-6.260;2023-11-18T09:54:04;10.00;;;2.17;;
74753;SDS011;63271;53.340;-6.260;2023-11-18T09:56:38;8.18;;;2.22;;
74753;SDS011;63271;53.340;-6.260;2023-11-18T09:59:31;14.75;;;2.30;;
74753;SDS011;63271;53.340;-6.260;2023-11-18T10:02:02;9.23;;;2.10;;
74753;SDS011;63271;53.340;-6.260;2023-11-18T10:04:34;9.32;;;2.00;;
74753;SDS011;63271;53.340;-6.260;2023-11-18T10:07:02;9.80;;;2.00;;
74753;SDS011;63271;53.340;-6.260;2023-11-18T10:09:34;12.73;;;2.58;;
74753;SDS011;63271;53.340;-6.260;2023-11-18T10:12:04;10.57;;;2.40;;
74753;SDS011;63271;53.340;-6.260;2023-11-18T10:14:36;10.15;;;2.30;;
74753;SDS011;63271;53.340;-6.260;2023-11-18T10:17:05;10.23;;;2.08;;
74753;SDS011;63271;53.340;-6.260;2023-11-18T10:22:40;9.15;;;2.10;;
74753;SDS011;63271;53.340;-6.260;2023-11-18T10:25:12;10.68;;;2.55;;
74753;SDS011;63271;53.340;-6.260;2023-11-18T10:27:51;11.13;;;2.65;;
74753;SDS011;63271;53.340;-6.260;2023-11-18T10:30:18;11.50;;;2.90;;
74753;SDS011;63271;53.340;-6.260;2023-11-18T10:32:59;8.77;;;2.10;;
74753;SDS011;63271;53.340;-6.260;2023-11-18T10:35:36;11.02;;;2.25;;
74753;SDS011;63271;53.340;-6.260;2023-11-18T10:38:02;8.07;;;2.13;;
74753;SDS011;63271;53.340;-6.260;2023-11-18T10:40:32;14.98;;;2.90;;
74753;SDS011;63271;53.340;-6.260;2023-11-18T10:43:02;9.55;;;2.47;;
74753;SDS011;63271;53.340;-6.260;2023-11-18T10:45:34;8.73;;;2.00;;
74753;SDS011;63271;53.340;-6.260;2023-11-18T10:48:05;11.60;;;2.20;;
74753;SDS011;63271;53.340;-6.260;2023-11-18T10:50:33;10.23;;;2.20;;
74753;SDS011;63271;53.340;-6.260;2023-11-18T10:53:01;8.93;;;2.05;;
74753;SDS011;63271;53.340;-6.260;2023-11-18T10:55:34;10.75;;;2.15;;
74753;SDS011;63271;53.340;-6.260;2023-11-18T10:58:05;12.43;;;2.20;;
74753;SDS011;63271;53.340;-6.260;2023-11-18T11:00:47;12.48;;;2.40;;
74753;SDS011;63271;53.340;-6.260;2023-11-18T11:03:16;13.90;;;3.20;;
74753;SDS011;63271;53.340;-6.260;2023-11-18T11:08:13;10.65;;;2.58;;
74753;SDS011;63271;53.340;-6.260;2023-11-18T11:10:45;15.43;;;2.80;;
74753;SDS011;63271;53.340;-6.260;2023-11-18T11:13:10;12.80;;;2.95;;
74753;SDS011;63271;53.340;-6.260;2023-11-18T11:15:40;13.20;;;2.55;;
74753;SDS011;63271;53.340;-6.260;2023-11-18T11:18:23;8.73;;;2.10;;
74753;SDS011;63271;53.340;-6.260;2023-11-18T11:29:43;7.45;;;1.83;;
74753;SDS011;63271;53.340;-6.260;2023-11-18T11:32:25;11.90;;;2.90;;
74753;SDS011;63271;53.340;-6.260;2023-11-18T11:35:00;10.80;;;2.42;;
74753;SDS011;63271;53.340;-6.260;2023-11-18T11:37:35;12.13;;;2.53;;
74753;SDS011;63271;53.340;-6.260;2023-11-18T11:40:02;11.43;;;2.38;;
74753;SDS011;63271;53.340;-6.260;2023-11-18T11:42:35;13.68;;;2.80;;
74753;SDS011;63271;53.340;-6.260;2023-11-18T11:45:00;14.80;;;2.63;;
74753;SDS011;63271;53.340;-6.260;2023-11-18T11:47:31;7.93;;;1.83;;
74753;SDS011;63271;53.340;-6.260;2023-11-18T11:50:34;8.35;;;2.05;;
74753;SDS011;63271;53.340;-6.260;2023-11-18T11:52:59;9.63;;;1.98;;
74753;SDS011;63271;53.340;-6.260;2023-11-18T11:55:41;9.45;;;2.22;;
74753;SDS011;63271;53.340;-6.260;2023-11-18T11:58:29;11.85;;;2.30;;
74753;SDS011;63271;53.340;-6.260;2023-11-18T12:01:14;9.20;;;2.20;;
74753;SDS011;63271;53.340;-6.260;2023-11-18T12:04:08;10.98;;;2.15;;
74753;SDS011;63271;53.340;-6.260;2023-11-18T12:06:48;9.07;;;2.58;;
74753;SDS011;63271;53.340;-6.260;2023-11-18T12:09:18;8.55;;;2.10;;
74753;SDS011;63271;53.340;-6.260;2023-11-18T12:11:57;10.55;;;2.47;;
74753;SDS011;63271;53.340;-6.260;2023-11-18T12:14:24;10.52;;;2.28;;
74753;SDS011;63271;53.340;-6.260;2023-11-18T12:16:59;10.55;;;2.33;;
74753;SDS011;63271;53.340;-6.260;2023-11-18T12:19:37;15.13;;;3.13;;
74753;SDS011;63271;53.340;-6.260;2023-11-18T12:22:19;11.43;;;1.92;;
74753;SDS011;63271;53.340;-6.260;2023-11-18T12:41:05;9.98;;;2.20;;
74753;SDS011;63271;53.340;-6.260;2023-11-18T12:49:21;15.75;;;2.38;;
74753;SDS011;63271;53.340;-6.260;2023-11-18T12:51:51;8.32;;;2.15;;
74753;SDS011;63271;53.340;-6.260;2023-11-18T12:54:18;11.00;;;2.03;;
74753;SDS011;63271;53.340;-6.260;2023-11-18T12:56:53;9.88;;;2.15;;
74753;SDS011;63271;53.340;-6.260;2023-11-18T12:59:25;10.27;;;2.67;;
74753;SDS011;63271;53.340;-6.260;2023-11-18T13:01:55;9.77;;;1.92;;
74753;SDS011;63271;53.340;-6.260;2023-11-18T13:04:23;14.30;;;2.47;;
74753;SDS011;63271;53.340;-6.260;2023-11-18T13:06:52;8.98;;;2.30;;
74753;SDS011;63271;53.340;-6.260;2023-11-18T13:09:18;11.45;;;2.17;;
74753;SDS011;63271;53.340;-6.260;2023-11-18T13:11:59;12.10;;;3.20;;
74753;SDS011;63271;53.340;-6.260;2023-11-18T13:14:30;10.80;;;3.10;;
74753;SDS011;63271;53.340;-6.260;2023-11-18T13:17:01;11.95;;;2.50;;
74753;SDS011;63271;53.340;-6.260;2023-11-18T13:19:33;9.25;;;2.30;;
74753;SDS011;63271;53.340;-6.260;2023-11-18T13:22:03;9.63;;;1.95;;
74753;SDS011;63271;53.340;-6.260;2023-11-18T13:24:30;10.00;;;2.40;;
74753;SDS011;63271;53.340;-6.260;2023-11-18T13:26:57;11.48;;;3.17;;
74753;SDS011;63271;53.340;-6.260;2023-11-18T13:29:31;12.75;;;2.40;;
74753;SDS011;63271;53.340;-6.260;2023-11-18T13:34:29;13.80;;;3.03;;
74753;SDS011;63271;53.340;-6.260;2023-11-18T13:36:57;9.93;;;2.38;;
74753;SDS011;63271;53.340;-6.260;2023-11-18T13:39:25;10.07;;;2.28;;
74753;SDS011;63271;53.340;-6.260;2023-11-18T13:41:56;14.05;;;2.95;;
74753;SDS011;63271;53.340;-6.260;2023-11-18T13:44:33;11.48;;;2.38;;
74753;SDS011;63271;53.340;-6.260;2023-11-18T13:47:09;12.85;;;2.35;;
74753;SDS011;63271;53.340;-6.260;2023-11-18T13:49:37;9.95;;;2.65;;
74753;SDS011;63271;53.340;-6.260;2023-11-18T13:52:07;10.65;;;2.58;;
74753;SDS011;63271;53.340;-6.260;2023-11-18T13:54:39;12.38;;;2.72;;
74753;SDS011;63271;53.340;-6.260;2023-11-18T13:57:10;11.95;;;2.95;;
74753;SDS011;63271;53.340;-6.260;2023-11-18T13:59:38;12.75;;;2.50;;
74753;SDS011;63271;53.340;-6.260;2023-11-18T14:02:06;12.80;;;2.95;;
74753;SDS011;63271;53.340;-6.260;2023-11-18T14:04:33;10.60;;;2.38;;
74753;SDS011;63271;53.340;-6.260;2023-11-18T14:07:03;9.45;;;2.00;;
74753;SDS011;63271;53.340;-6.260;2023-11-18T14:09:34;11.77;;;2.55;;
74753;SDS011;63271;53.340;-6.260;2023-11-18T14:12:10;10.07;;;2.60;;
74753;SDS011;63271;53.340;-6.260;2023-11-18T14:14:41;13.82;;;3.20;;
74753;SDS011;63271;53.340;-6.260;2023-11-18T14:17:09;10.20;;;2.65;;
74753;SDS011;63271;53.340;-6.260;2023-11-18T14:19:39;10.55;;;2.20;;
74753;SDS011;63271;53.340;-6.260;2023-11-18T14:22:08;14.02;;;2.92;;
74753;SDS011;63271;53.340;-6.260;2023-11-18T14:24:37;13.10;;;2.88;;
74753;SDS011;63271;53.340;-6.260;2023-11-18T14:27:07;10.95;;;2.55;;
74753;SDS011;63271;53.340;-6.260;2023-11-18T14:29:35;13.88;;;2.53;;
74753;SDS011;63271;53.340;-6.260;2023-11-18T14:32:03;17.10;;;2.72;;
74753;SDS011;63271;53.340;-6.260;2023-11-18T14:34:31;12.40;;;2.50;;
74753;SDS011;63271;53.340;-6.260;2023-11-18T14:36:56;15.23;;;2.78;;
74753;SDS011;63271;53.340;-6.260;2023-11-18T14:39:21;12.85;;;3.28;;
74753;SDS011;63271;53.340;-6.260;2023-11-18T14:41:49;14.38;;;3.55;;
74753;SDS011;63271;53.340;-6.260;2023-11-18T14:44:21;14.45;;;2.97;;
74753;SDS011;63271;53.340;-6.260;2023-11-18T14:46:49;14.52;;;3.03;;
74753;SDS011;63271;53.340;-6.260;2023-11-18T14:49:14;12.98;;;2.55;;
74753;SDS011;63271;53.340;-6.260;2023-11-18T14:51:42;18.38;;;3.25;;
74753;SDS011;63271;53.340;-6.260;2023-11-18T14:54:10;24.90;;;3.83;;
74753;SDS011;63271;53.340;-6.260;2023-11-18T14:56:35;15.75;;;3.35;;
74753;SDS011;63271;53.340;-6.260;2023-11-18T14:59:01;13.68;;;3.53;;
74753;SDS011;63271;53.340;-6.260;2023-11-18T15:01:30;15.10;;;3.28;;
74753;SDS011;63271;53.340;-6.260;2023-11-18T15:03:57;14.48;;;3.45;;
74753;SDS011;63271;53.340;-6.260;2023-11-18T15:06:30;12.10;;;3.10;;
74753;SDS011;63271;53.340;-6.260;2023-11-18T15:09:00;16.63;;;3.80;;
74753;SDS011;63271;53.340;-6.260;2023-11-18T15:11:28;16.13;;;3.65;;
74753;SDS011;63271;53.340;-6.260;2023-11-18T15:13:54;14.75;;;3.55;;
74753;SDS011;63271;53.340;-6.260;2023-11-18T15:16:21;16.35;;;2.88;;
74753;SDS011;63271;53.340;-6.260;2023-11-18T15:18:47;19.30;;;3.95;;
74753;SDS011;63271;53.340;-6.260;2023-11-18T15:21:17;15.95;;;3.67;;
74753;SDS011;63271;53.340;-6.260;2023-11-18T15:23:47;11.80;;;2.88;;
74753;SDS011;63271;53.340;-6.260;2023-11-18T15:26:17;13.45;;;3.13;;
74753;SDS011;63271;53.340;-6.260;2023-11-18T15:28:47;13.93;;;2.90;;
74753;SDS011;63271;53.340;-6.260;2023-11-18T15:31:14;13.23;;;2.90;;
74753;SDS011;63271;53.340;-6.260;2023-11-18T15:33:40;14.25;;;3.55;;
74753;SDS011;63271;53.340;-6.260;2023-11-18T15:36:12;16.45;;;4.05;;
74753;SDS011;63271;53.340;-6.260;2023-11-18T15:38:40;14.27;;;2.88;;
74753;SDS011;63271;53.340;-6.260;2023-11-18T15:41:08;14.50;;;3.05;;
74753;SDS011;63271;53.340;-6.260;2023-11-18T15:43:36;13.55;;;3.55;;
74753;SDS011;63271;53.340;-6.260;2023-11-18T15:46:04;14.65;;;3.70;;
74753;SDS011;63271;53.340;-6.260;2023-11-18T15:48:31;11.40;;;2.95;;
74753;SDS011;63271;53.340;-6.260;2023-11-18T15:51:00;13.13;;;3.17;;
74753;SDS011;63271;53.340;-6.260;2023-11-18T15:53:28;15.15;;;3.15;;
74753;SDS011;63271;53.340;-6.260;2023-11-18T15:55:57;18.05;;;2.92;;
74753;SDS011;63271;53.340;-6.260;2023-11-18T15:58:22;18.60;;;3.95;;
74753;SDS011;63271;53.340;-6.260;2023-11-18T16:00:51;13.57;;;3.08;;
74753;SDS011;63271;53.340;-6.260;2023-11-18T16:03:17;10.60;;;2.95;;
74753;SDS011;63271;53.340;-6.260;2023-11-18T16:05:47;12.00;;;2.85;;
74753;SDS011;63271;53.340;-6.260;2023-11-18T16:08:14;14.45;;;3.85;;
74753;SDS011;63271;53.340;-6.260;2023-11-18T16:10:40;17.67;;;3.70;;
74753;SDS011;63271;53.340;-6.260;2023-11-18T16:13:08;12.65;;;3.35;;
74753;SDS011;63271;53.340;-6.260;2023-11-18T16:15:33;14.00;;;3.33;;
74753;SDS011;63271;53.340;-6.260;2023-11-18T16:18:01;12.73;;;3.40;;
74753;SDS011;63271;53.340;-6.260;2023-11-18T16:20:32;14.60;;;3.38;;
74753;SDS011;63271;53.340;-6.260;2023-11-18T16:22:58;17.48;;;3.00;;
74753;SDS011;63271;53.340;-6.260;2023-11-18T16:25:27;13.95;;;3.25;;
74753;SDS011;63271;53.340;-6.260;2023-11-18T16:27:59;12.27;;;2.88;;
74753;SDS011;63271;53.340;-6.260;2023-11-18T16:30:29;13.02;;;3.45;;
74753;SDS011;63271;53.340;-6.260;2023-11-18T16:32:58;15.70;;;3.42;;
74753;SDS011;63271;53.340;-6.260;2023-11-18T16:35:28;16.38;;;3.55;;
74753;SDS011;63271;53.340;-6.260;2023-11-18T16:37:54;15.80;;;3.17;;
74753;SDS011;63271;53.340;-6.260;2023-11-18T16:40:19;13.65;;;3.05;;
74753;SDS011;63271;53.340;-6.260;2023-11-18T16:42:50;11.18;;;3.05;;
74753;SDS011;63271;53.340;-6.260;2023-11-18T16:45:20;13.85;;;3.25;;
74753;SDS011;63271;53.340;-6.260;2023-11-18T16:47:54;13.52;;;2.95;;
74753;SDS011;63271;53.340;-6.260;2023-11-18T16:50:20;14.25;;;3.63;;
74753;SDS011;63271;53.340;-6.260;2023-11-18T16:52:47;17.30;;;3.08;;
74753;SDS011;63271;53.340;-6.260;2023-11-18T16:55:15;12.90;;;3.28;;
74753;SDS011;63271;53.340;-6.260;2023-11-18T16:57:41;14.40;;;3.08;;
74753;SDS011;63271;53.340;-6.260;2023-11-18T17:00:07;10.80;;;2.83;;
74753;SDS011;63271;53.340;-6.260;2023-11-18T17:02:49;12.57;;;2.88;;
74753;SDS011;63271;53.340;-6.260;2023-11-18T17:05:18;12.88;;;3.08;;
74753;SDS011;63271;53.340;-6.260;2023-11-18T17:07:44;10.50;;;2.95;;
74753;SDS011;63271;53.340;-6.260;2023-11-18T17:10:14;11.05;;;2.80;;
74753;SDS011;63271;53.340;-6.260;2023-11-18T17:12:43;13.45;;;3.20;;
74753;SDS011;63271;53.340;-6.260;2023-11-18T17:15:10;15.00;;;3.60;;
74753;SDS011;63271;53.340;-6.260;2023-11-18T17:17:42;13.00;;;3.75;;
74753;SDS011;63271;53.340;-6.260;2023-11-18T17:20:12;11.70;;;2.72;;
74753;SDS011;63271;53.340;-6.260;2023-11-18T17:22:39;13.43;;;3.25;;
74753;SDS011;63271;53.340;-6.260;2023-11-18T17:25:08;15.23;;;2.85;;
74753;SDS011;63271;53.340;-6.260;2023-11-18T17:27:36;13.45;;;3.83;;
74753;SDS011;63271;53.340;-6.260;2023-11-18T17:30:02;13.30;;;3.25;;
74753;SDS011;63271;53.340;-6.260;2023-11-18T17:32:33;9.75;;;3.13;;
74753;SDS011;63271;53.340;-6.260;2023-11-18T17:35:01;11.65;;;2.90;;
74753;SDS011;63271;53.340;-6.260;2023-11-18T17:37:26;10.20;;;2.67;;
74753;SDS011;63271;53.340;-6.260;2023-11-18T17:39:52;15.45;;;3.47;;
74753;SDS011;63271;53.340;-6.260;2023-11-18T17:42:20;11.35;;;3.55;;
74753;SDS011;63271;53.340;-6.260;2023-11-18T17:44:45;16.75;;;3.28;;
74753;SDS011;63271;53.340;-6.260;2023-11-18T17:47:14;8.43;;;2.78;;
74753;SDS011;63271;53.340;-6.260;2023-11-18T17:49:43;12.43;;;3.47;;
74753;SDS011;63271;53.340;-6.260;2023-11-18T17:52:08;11.02;;;3.42;;
74753;SDS011;63271;53.340;-6.260;2023-11-18T17:54:34;13.30;;;3.10;;
74753;SDS011;63271;53.340;-6.260;2023-11-18T17:57:00;13.75;;;3.72;;
74753;SDS011;63271;53.340;-6.260;2023-11-18T17:59:31;14.70;;;3.38;;
74753;SDS011;63271;53.340;-6.260;2023-11-18T18:01:56;10.15;;;2.97;;
74753;SDS011;63271;53.340;-6.260;2023-11-18T18:04:22;12.57;;;2.97;;
74753;SDS011;63271;53.340;-6.260;2023-11-18T18:06:48;15.13;;;3.90;;
74753;SDS011;63271;53.340;-6.260;2023-11-18T18:09:15;13.32;;;3.00;;
74753;SDS011;63271;53.340;-6.260;2023-11-18T18:11:41;13.38;;;3.28;;
74753;SDS011;63271;53.340;-6.260;2023-11-18T18:14:07;13.85;;;3.35;;
74753;SDS011;63271;53.340;-6.260;2023-11-18T18:16:37;14.32;;;3.05;;
74753;SDS011;63271;53.340;-6.260;2023-11-18T18:19:02;13.10;;;3.13;;
74753;SDS011;63271;53.340;-6.260;2023-11-18T18:21:30;14.98;;;3.70;;
74753;SDS011;63271;53.340;-6.260;2023-11-18T18:23:58;12.73;;;2.88;;
74753;SDS011;63271;53.340;-6.260;2023-11-18T18:26:31;13.73;;;3.35;;
74753;SDS011;63271;53.340;-6.260;2023-11-18T18:28:58;17.92;;;4.35;;
74753;SDS011;63271;53.340;-6.260;2023-11-18T18:31:24;12.80;;;3.15;;
74753;SDS011;63271;53.340;-6.260;2023-11-18T18:33:57;15.55;;;3.67;;
74753;SDS011;63271;53.340;-6.260;2023-11-18T18:36:25;12.85;;;3.88;;
74753;SDS011;63271;53.340;-6.260;2023-11-18T18:38:54;15.82;;;3.35;;
74753;SDS011;63271;53.340;-6.260;2023-11-18T18:41:19;13.38;;;3.58;;
74753;SDS011;63271;53.340;-6.260;2023-11-18T18:43:45;12.38;;;3.35;;
74753;SDS011;63271;53.340;-6.260;2023-11-18T18:46:11;11.88;;;3.28;;
74753;SDS011;63271;53.340;-6.260;2023-11-18T18:48:36;14.13;;;3.28;;
74753;SDS011;63271;53.340;-6.260;2023-11-18T18:51:02;12.93;;;2.92;;
74753;SDS011;63271;53.340;-6.260;2023-11-18T18:53:28;12.15;;;3.80;;
74753;SDS011;63271;53.340;-6.260;2023-11-18T18:55:54;12.15;;;3.28;;
74753;SDS011;63271;53.340;-6.260;2023-11-18T18:58:21;14.52;;;3.58;;
74753;SDS011;63271;53.340;-6.260;2023-11-18T19:00:50;14.13;;;3.90;;
74753;SDS011;63271;53.340;-6.260;2023-11-18T19:03:20;18.70;;;4.32;;
74753;SDS011;63271;53.340;-6.260;2023-11-18T19:05:46;15.05;;;3.72;;
74753;SDS011;63271;53.340;-6.260;2023-11-18T19:08:14;12.57;;;3.45;;
74753;SDS011;63271;53.340;-6.260;2023-11-18T19:10:42;13.82;;;3.60;;
74753;SDS011;63271;53.340;-6.260;2023-11-18T19:13:08;14.93;;;3.63;;
74753;SDS011;63271;53.340;-6.260;2023-11-18T19:15:36;12.70;;;3.50;;
74753;SDS011;63271;53.340;-6.260;2023-11-18T19:18:04;12.65;;;3.60;;
74753;SDS011;63271;53.340;-6.260;2023-11-18T19:20:31;15.57;;;4.55;;
74753;SDS011;63271;53.340;-6.260;2023-11-18T19:23:04;14.95;;;3.55;;
74753;SDS011;63271;53.340;-6.260;2023-11-18T19:25:34;14.77;;;3.65;;
74753;SDS011;63271;53.340;-6.260;2023-11-18T19:27:59;14.45;;;3.45;;
74753;SDS011;63271;53.340;-6.260;2023-11-18T19:30:26;17.48;;;3.83;;
74753;SDS011;63271;53.340;-6.260;2023-11-18T19:32:51;16.90;;;3.97;;
74753;SDS011;63271;53.340;-6.260;2023-11-18T19:35:20;18.13;;;4.57;;
74753;SDS011;63271;53.340;-6.260;2023-11-18T19:37:51;12.18;;;3.55;;
74753;SDS011;63271;53.340;-6.260;2023-11-18T19:40:16;17.75;;;4.30;;
74753;SDS011;63271;53.340;-6.260;2023-11-18T19:42:42;18.98;;;4.05;;
74753;SDS011;63271;53.340;-6.260;2023-11-18T19:45:08;17.65;;;3.65;;
74753;SDS011;63271;53.340;-6.260;2023-11-18T19:47:34;13.07;;;3.58;;
74753;SDS011;63271;53.340;-6.260;2023-11-18T19:50:07;16.08;;;4.30;;
74753;SDS011;63271;53.340;-6.260;2023-11-18T19:52:38;18.67;;;4.50;;
74753;SDS011;63271;53.340;-6.260;2023-11-18T19:55:07;14.27;;;3.45;;
74753;SDS011;63271;53.340;-6.260;2023-11-18T19:57:36;17.10;;;3.85;;
74753;SDS011;63271;53.340;-6.260;2023-11-18T20:00:04;17.42;;;4.22;;
